createdAt,value
2023-03-21T00:04:24.858Z,4.93
2023-03-21T00:09:27.186Z,6.17
2023-03-21T00:14:31.172Z,6.13
2023-03-21T00:19:32.948Z,5.30
2023-03-21T00:24:36.022Z,4.53
2023-03-21T00:29:37.946Z,4.60
2023-03-21T00:34:48.545Z,5.80
2023-03-21T00:39:56.514Z,5.37
2023-03-21T00:44:58.249Z,5.00
2023-03-21T00:49:59.866Z,4.43
2023-03-21T00:55:01.594Z,4.93
2023-03-21T01:00:07.454Z,5.70
2023-03-21T01:05:11.638Z,5.03
2023-03-21T01:10:13.629Z,4.87
2023-03-21T01:15:15.442Z,4.93
2023-03-21T01:20:17.401Z,5.03
2023-03-21T01:25:22.699Z,5.20
2023-03-21T01:30:24.972Z,5.80
2023-03-21T01:35:30.012Z,5.93
2023-03-21T01:40:34.117Z,5.40
2023-03-21T01:46:09.975Z,4.83
2023-03-21T01:51:13.513Z,5.53
2023-03-21T01:56:38.809Z,5.33
2023-03-21T02:01:42.424Z,6.13
2023-03-21T02:06:54.583Z,6.00
2023-03-21T02:11:56.995Z,7.40
2023-03-21T02:17:05.705Z,12.03
2023-03-21T02:22:28.877Z,6.87
2023-03-21T02:27:40.987Z,6.23
2023-03-21T02:32:48.316Z,6.90
2023-03-21T02:38:00.862Z,7.30
2023-03-21T02:43:32.104Z,7.57
2023-03-21T02:48:50.706Z,7.17
2023-03-21T02:54:27.914Z,8.50
2023-03-21T02:59:27.123Z,8.57
2023-03-21T03:04:29.041Z,8.63
2023-03-21T03:09:43.312Z,9.47
2023-03-21T03:15:03.630Z,9.13
2023-03-21T03:20:20.593Z,8.87
2023-03-21T03:25:43.060Z,7.93
2023-03-21T03:31:01.200Z,7.97
2023-03-21T03:36:25.024Z,9.20
2023-03-21T03:42:03.089Z,8.50
2023-03-21T03:47:06.544Z,7.93
2023-03-21T03:52:21.703Z,8.47
2023-03-21T03:57:26.304Z,8.37
2023-03-21T04:02:30.207Z,8.03
2023-03-21T04:07:32.139Z,8.13
2023-03-21T04:12:33.969Z,8.73
2023-03-21T04:17:35.660Z,7.77
2023-03-21T04:22:38.157Z,9.10
2023-03-21T04:27:39.828Z,7.93
2023-03-21T04:32:42.729Z,7.70
2023-03-21T04:37:44.427Z,8.47
2023-03-21T04:42:49.344Z,8.30
2023-03-21T04:47:51.158Z,8.53
2023-03-21T04:52:52.856Z,9.43
2023-03-21T04:57:54.649Z,8.90
2023-03-21T05:02:57.815Z,8.63
2023-03-21T05:08:00.607Z,7.23
2023-03-21T05:13:02.314Z,7.63
2023-03-21T05:18:11.456Z,6.97
2023-03-21T05:23:13.257Z,6.87
2023-03-21T05:28:18.200Z,7.13
2023-03-21T05:33:19.826Z,6.70
2023-03-21T05:38:21.625Z,7.07
2023-03-21T05:43:23.419Z,6.73
2023-03-21T05:48:25.413Z,7.30
2023-03-21T05:53:27.313Z,7.43
2023-03-21T05:58:29.998Z,6.63
2023-03-21T06:03:31.697Z,6.50
2023-03-21T06:08:33.680Z,9.63
2023-03-21T06:13:35.319Z,9.97
2023-03-21T06:18:37.440Z,9.60
2023-03-21T06:23:39.461Z,6.93
2023-03-21T06:28:41.312Z,8.10
2023-03-21T06:33:43.028Z,7.30
2023-03-21T06:38:44.780Z,8.60
2023-03-21T06:43:46.537Z,7.80
2023-03-21T06:48:48.343Z,8.27
2023-03-21T06:53:50.033Z,7.53
2023-03-21T06:58:51.779Z,7.77
2023-03-21T07:03:58.357Z,7.97
2023-03-21T07:09:00.733Z,8.10
2023-03-21T07:14:02.492Z,8.20
2023-03-21T07:19:04.193Z,8.13
2023-03-21T07:24:06.227Z,6.80
2023-03-21T07:29:08.158Z,6.50
2023-03-21T07:34:09.776Z,6.50
2023-03-21T07:39:11.431Z,5.70
2023-03-21T07:44:13.257Z,5.40
2023-03-21T07:49:15.435Z,5.13
2023-03-21T07:54:19.339Z,5.20
2023-03-21T07:59:21.124Z,4.97
2023-03-21T08:04:22.885Z,5.73
2023-03-21T08:09:24.787Z,4.70
2023-03-21T08:14:26.460Z,4.87
2023-03-21T08:19:28.202Z,5.53
2023-03-21T08:24:30.255Z,5.23
2023-03-21T08:29:32.004Z,4.90
2023-03-21T08:34:33.674Z,5.33
2023-03-21T08:39:35.357Z,5.03
2023-03-21T08:44:39.053Z,4.70
2023-03-21T08:49:41.694Z,5.20
2023-03-21T08:54:45.430Z,5.37
2023-03-21T08:59:47.152Z,4.83
2023-03-21T09:04:48.872Z,5.13
2023-03-21T09:10:08.094Z,5.70
2023-03-21T09:15:15.262Z,5.20
2023-03-21T09:20:18.818Z,5.57
2023-03-21T09:25:21.548Z,5.50
2023-03-21T09:30:26.147Z,5.70
2023-03-21T09:35:28.361Z,5.87
2023-03-21T09:40:50.372Z,5.97
2023-03-21T09:45:58.413Z,5.97
2023-03-21T09:51:01.193Z,5.60
2023-03-21T09:56:05.574Z,6.20
2023-03-21T10:01:22.306Z,5.80
2023-03-21T10:06:29.429Z,5.43
2023-03-21T10:11:42.433Z,5.33
2023-03-21T10:16:47.149Z,4.90
2023-03-21T10:22:05.959Z,4.57
2023-03-21T10:27:07.888Z,4.63
2023-03-21T10:32:13.893Z,4.73
2023-03-21T10:37:16.927Z,4.87
2023-03-21T10:42:24.972Z,5.10
2023-03-21T10:47:31.248Z,5.90
2023-03-21T10:52:34.521Z,5.37
2023-03-21T10:57:38.200Z,5.40
2023-03-21T11:06:36.633Z,4.80
2023-03-21T11:11:40.887Z,5.30
2023-03-21T11:16:44.216Z,5.57
2023-03-21T11:21:46.472Z,4.27
2023-03-21T11:26:50.822Z,5.10
2023-03-21T11:31:52.629Z,5.00
2023-03-21T11:36:59.720Z,4.60
2023-03-21T11:42:01.344Z,4.50
2023-03-21T11:47:03.300Z,5.20
2023-03-21T11:52:32.830Z,4.70
2023-03-21T11:57:46.621Z,4.47
2023-03-21T12:03:03.507Z,3.80
2023-03-21T12:08:20.432Z,3.83
2023-03-21T12:13:46.786Z,4.23
2023-03-21T12:19:00.726Z,3.67
2023-03-21T12:24:24.885Z,4.20
2023-03-21T12:29:27.047Z,3.80
2023-03-21T12:34:34.964Z,3.00
2023-03-21T12:39:40.894Z,3.80
2023-03-21T12:44:47.975Z,3.13
2023-03-21T12:50:12.855Z,3.23
2023-03-21T12:55:27.897Z,3.53
2023-03-21T13:00:32.262Z,3.00
2023-03-21T13:05:35.888Z,3.10
2023-03-21T13:10:40.427Z,3.30
2023-03-21T13:15:59.743Z,2.80
2023-03-21T13:21:13.741Z,2.93
2023-03-21T13:26:16.100Z,3.57
2023-03-21T13:31:25.825Z,3.10
2023-03-21T13:36:31.846Z,3.60
2023-03-21T13:41:38.903Z,3.67
2023-03-21T13:46:54.029Z,3.67
2023-03-21T13:51:58.903Z,3.93
2023-03-21T13:57:05.372Z,3.90
2023-03-21T14:02:19.005Z,3.70
2023-03-21T14:07:26.409Z,3.60
2023-03-21T14:12:34.792Z,4.60
2023-03-21T14:17:36.609Z,3.60
2023-03-21T14:22:41.861Z,3.67
2023-03-21T14:27:47.567Z,3.30
2023-03-21T14:32:49.512Z,3.10
2023-03-21T14:37:51.735Z,3.47
2023-03-21T14:42:54.494Z,3.30
2023-03-21T14:48:06.783Z,3.23
2023-03-21T14:53:32.749Z,3.10
2023-03-21T14:58:38.999Z,3.17
2023-03-21T15:03:43.888Z,2.90
2023-03-21T15:09:04.061Z,3.40
2023-03-21T15:14:14.062Z,3.73
2023-03-21T15:19:20.183Z,4.83
2023-03-21T15:24:30.297Z,3.60
2023-03-21T15:29:34.441Z,2.97
2023-03-21T15:34:36.656Z,2.97
2023-03-21T15:39:38.408Z,2.67
2023-03-21T15:44:49.588Z,3.40
2023-03-21T15:49:55.710Z,3.43
2023-03-21T15:54:59.293Z,3.50
2023-03-21T16:00:12.869Z,8.00
2023-03-21T16:05:26.435Z,3.90
2023-03-21T16:10:32.260Z,4.00
2023-03-21T16:15:34.278Z,3.90
2023-03-21T16:20:41.100Z,4.30
2023-03-21T16:25:44.084Z,4.23
2023-03-21T16:30:45.791Z,4.17
2023-03-21T16:35:47.621Z,4.27
2023-03-21T16:40:51.352Z,3.90
2023-03-21T16:45:53.053Z,4.23
2023-03-21T16:50:54.695Z,8.93
2023-03-21T16:56:02.516Z,6.27
2023-03-21T17:01:04.245Z,7.03
2023-03-21T17:06:06.220Z,5.67
2023-03-21T17:11:12.725Z,8.00
2023-03-21T17:16:19.283Z,7.30
2023-03-21T17:21:24.039Z,7.10
2023-03-21T17:26:28.401Z,6.47
2023-03-21T17:31:37.214Z,5.20
2023-03-21T17:36:42.230Z,5.70
2023-03-21T17:41:43.955Z,5.30
2023-03-21T17:46:46.498Z,5.37
2023-03-21T17:51:48.302Z,5.90
2023-03-21T17:56:50.004Z,10.33
2023-03-21T18:01:51.938Z,4.90
2023-03-21T18:06:57.421Z,5.80
2023-03-21T18:11:59.126Z,9.97
2023-03-21T18:17:00.878Z,7.30
2023-03-21T18:22:03.679Z,5.30
2023-03-21T18:27:06.558Z,4.97
2023-03-21T18:32:08.945Z,5.30
2023-03-21T18:37:13.265Z,5.83
2023-03-21T18:42:18.456Z,5.67
2023-03-21T18:47:24.713Z,5.37
2023-03-21T18:52:27.177Z,5.40
2023-03-21T18:57:38.253Z,5.63
2023-03-21T19:02:47.732Z,6.47
2023-03-21T19:07:51.591Z,8.03
2023-03-21T19:12:54.762Z,9.93
2023-03-21T19:23:18.824Z,6.63
2023-03-21T19:28:20.558Z,6.57
2023-03-21T19:33:22.779Z,6.17
2023-03-21T19:38:24.382Z,7.70
2023-03-21T19:43:32.894Z,7.70
2023-03-21T19:48:35.269Z,6.43
2023-03-21T19:53:39.996Z,6.10
2023-03-21T19:58:41.845Z,6.10
2023-03-21T20:03:47.331Z,6.67
2023-03-21T20:09:27.660Z,6.20
2023-03-21T20:14:11.069Z,7.90
2023-03-21T20:19:14.703Z,7.53
2023-03-21T20:24:17.002Z,6.87
2023-03-21T20:34:40.650Z,8.53
2023-03-21T20:39:42.671Z,8.07
2023-03-21T20:44:57.956Z,7.63
2023-03-21T20:50:00.556Z,7.17
2023-03-21T20:55:03.093Z,7.30
2023-03-21T21:00:09.087Z,7.70
2023-03-21T21:05:25.409Z,6.30
2023-03-21T21:10:29.794Z,6.90
2023-03-21T21:15:33.327Z,6.10
2023-03-21T21:20:36.779Z,7.40
2023-03-21T21:25:38.581Z,7.90
2023-03-21T21:30:41.470Z,10.60
2023-03-21T21:35:47.716Z,7.10
2023-03-21T21:40:53.454Z,6.53
2023-03-21T21:45:55.104Z,7.23
2023-03-21T21:50:56.783Z,7.00
2023-03-21T21:55:58.383Z,7.27
2023-03-21T22:01:01.849Z,6.03
2023-03-21T22:06:04.697Z,8.10
2023-03-21T22:11:06.704Z,6.53
2023-03-21T22:16:08.666Z,6.93
2023-03-21T22:21:10.396Z,9.50
2023-03-21T22:26:12.014Z,7.50
2023-03-21T22:31:16.089Z,8.73
2023-03-21T22:36:17.832Z,9.20
2023-03-21T22:41:19.402Z,8.67
2023-03-21T22:46:21.166Z,8.80
2023-03-21T22:51:22.860Z,11.23
2023-03-21T22:56:24.540Z,10.03
2023-03-21T23:01:26.291Z,8.23
2023-03-21T23:06:27.965Z,6.20
2023-03-21T23:11:29.731Z,5.90
2023-03-21T23:16:31.990Z,5.50
2023-03-21T23:21:34.149Z,6.63
2023-03-21T23:26:36.373Z,6.00
2023-03-21T23:31:38.104Z,7.67
2023-03-21T23:36:39.914Z,6.83
2023-03-21T23:41:42.877Z,8.17
2023-03-21T23:46:44.576Z,8.60
2023-03-21T23:51:47.161Z,7.47
2023-03-21T23:56:48.840Z,8.50
